Time;durP1;ratioP1;P1;durP2;ratioP2;P2;SDS_P1;SDS_P2;PMS_P1;PMS_P2;Temp;Humidity;BMP_temperature;BMP_pressure;BME280_temperature;BME280_humidity;BME280_pressure;Samples;Min_cycle;Max_cycle;Signal;HPM_P1;HPM_P2
2021/08/18 00:01:11;;;;;;;;;1.00;1.00;;;;;22.54;41.39;98365.50;4903744;28;104041;-89
2021/08/18 00:03:39;;;;;;;;;1.67;1.67;;;;;22.54;41.22;98359.16;4898940;28;104511;-89
2021/08/18 00:06:06;;;;;;;;;1.00;1.00;;;;;22.54;41.16;98360.00;4889951;28;103190;-89
2021/08/18 00:08:40;;;;;;;;;2.67;1.67;;;;;22.54;41.14;98360.00;4908852;28;103334;-89
2021/08/18 00:11:16;;;;;;;;;1.00;1.00;;;;;22.52;41.25;98362.19;4905084;28;103852;-89
2021/08/18 00:13:49;;;;;;;;;1.00;1.00;;;;;22.52;41.41;98355.84;4911797;28;108945;-89
2021/08/18 00:16:25;;;;;;;;;2.00;2.00;;;;;22.50;41.76;98352.56;4893911;28;104289;-88
2021/08/18 00:19:00;;;;;;;;;3.00;1.33;;;;;22.48;41.03;98344.59;4843334;28;105227;-89
2021/08/18 00:21:34;;;;;;;;;2.00;1.00;;;;;22.42;41.38;98345.75;4897870;28;104699;-89
2021/08/18 00:24:09;;;;;;;;;2.00;1.00;;;;;22.50;41.45;98355.34;4900263;28;103588;-88
2021/08/18 00:26:44;;;;;;;;;1.00;1.00;;;;;22.48;40.96;98355.59;4892411;28;102352;-88
2021/08/18 00:29:27;;;;;;;;;1.00;1.00;;;;;22.40;41.20;98338.84;4895071;28;103949;-89
2021/08/18 00:32:10;;;;;;;;;1.33;1.33;;;;;22.48;41.20;98354.78;4906496;28;102646;-89
2021/08/18 00:34:44;;;;;;;;;1.00;1.00;;;;;22.48;41.23;98352.03;4898490;28;103572;-88
2021/08/18 00:37:19;;;;;;;;;1.33;1.00;;;;;22.47;41.35;98347.66;4898254;28;102630;-88
2021/08/18 00:39:53;;;;;;;;;1.67;1.67;;;;;22.47;41.10;98342.13;4893074;28;102703;-88
2021/08/18 00:42:28;;;;;;;;;1.00;1.00;;;;;22.46;41.05;98346.00;4891627;28;102647;-89
2021/08/18 00:44:55;;;;;;;;;1.00;1.00;;;;;22.45;41.29;98347.91;4893337;28;104085;-89
2021/08/18 00:47:23;;;;;;;;;2.00;1.00;;;;;22.42;41.05;98344.91;4906419;28;102639;-89
2021/08/18 00:49:50;;;;;;;;;1.00;1.00;;;;;22.43;40.98;98341.03;4904929;28;102656;-89
2021/08/18 00:52:17;;;;;;;;;1.00;1.00;;;;;22.41;41.32;98343.25;4901716;28;102773;-88
2021/08/18 00:54:49;;;;;;;;;1.67;1.67;;;;;22.41;41.07;98343.25;4896267;28;109268;-89
2021/08/18 00:57:16;;;;;;;;;1.00;1.00;;;;;22.28;41.48;98327.34;4895953;28;102528;-88
2021/08/18 00:59:43;;;;;;;;;1.00;1.00;;;;;22.38;41.06;98347.38;4896449;28;102681;-89
2021/08/18 01:02:11;;;;;;;;;0.67;0.67;;;;;22.41;41.09;98354.28;4872338;28;102535;-88
2021/08/18 01:04:38;;;;;;;;;3.00;2.00;;;;;22.38;41.13;98354.84;4858051;28;104334;-89
2021/08/18 01:07:05;;;;;;;;;0.67;0.67;;;;;22.38;40.95;98374.94;4890485;28;102564;-88
2021/08/18 01:09:35;;;;;;;;;2.00;1.33;;;;;22.38;41.18;98374.13;4888731;28;102744;-89
2021/08/18 01:12:11;;;;;;;;;2.00;1.00;;;;;22.37;41.25;98380.75;4892588;28;104296;-88
2021/08/18 01:14:43;;;;;;;;;0.67;0.67;;;;;22.36;40.91;98376.34;4901363;28;103284;-89
2021/08/18 01:17:17;;;;;;;;;1.00;1.00;;;;;22.34;41.14;98367.53;4900081;28;102518;-89
2021/08/18 01:19:50;;;;;;;;;1.00;1.00;;;;;22.33;41.14;98363.97;4900969;28;104953;-89
2021/08/18 01:22:29;;;;;;;;;2.00;2.00;;;;;22.34;41.19;98368.34;4915995;28;102599;-89
2021/08/18 01:25:05;;;;;;;;;1.00;1.00;;;;;22.32;41.50;98365.06;4840806;28;109171;-89
2021/08/18 01:27:39;;;;;;;;;1.00;1.00;;;;;22.32;40.93;98364.25;4873838;28;102803;-89
2021/08/18 01:30:18;;;;;;;;;2.00;2.00;;;;;22.32;40.90;98367.00;4901784;28;102427;-89
2021/08/18 01:32:56;;;;;;;;;2.00;2.00;;;;;22.31;40.96;98370.84;4914654;28;104095;-88
2021/08/18 01:35:36;;;;;;;;;0.67;0.67;;;;;22.29;41.23;98368.38;4895289;28;109108;-89
2021/08/18 01:38:12;;;;;;;;;0.67;0.67;;;;;22.30;41.48;98352.66;4895423;28;102652;-89
2021/08/18 01:40:57;;;;;;;;;2.00;2.00;;;;;22.28;41.23;98349.38;4914624;28;102439;-89
2021/08/18 01:43:31;;;;;;;;;0.67;0.67;;;;;22.28;41.20;98361.22;4908073;28;102400;-89
2021/08/18 01:46:05;;;;;;;;;1.00;1.00;;;;;22.26;41.30;98357.91;4912154;28;103158;-89
2021/08/18 01:48:39;;;;;;;;;0.67;0.67;;;;;22.29;41.35;98362.06;4922083;28;107110;-89
2021/08/18 01:51:11;;;;;;;;;1.00;1.00;;;;;22.27;41.07;98359.56;4908678;28;102662;-89
2021/08/18 01:53:43;;;;;;;;;2.00;2.00;;;;;22.14;40.99;98341.75;4919807;28;102730;-89
2021/08/18 01:56:12;;;;;;;;;2.00;0.67;;;;;22.24;41.17;98360.94;4913259;28;104133;-88
2021/08/18 01:58:42;;;;;;;;;2.33;0.67;;;;;22.24;41.45;98349.94;4915868;28;102440;-88
2021/08/18 02:01:13;;;;;;;;;1.00;0.67;;;;;22.22;41.13;98351.34;4907633;28;102731;-89
2021/08/18 02:03:40;;;;;;;;;1.00;1.00;;;;;22.23;41.33;98350.22;4916528;28;102908;-88
2021/08/18 02:06:07;;;;;;;;;2.00;1.00;;;;;22.22;41.12;98337.56;4915097;28;104141;-89
2021/08/18 02:08:34;;;;;;;;;1.00;1.00;;;;;22.22;41.29;98340.31;4899441;28;102410;-88
2021/08/18 02:11:02;;;;;;;;;1.00;0.67;;;;;22.21;41.40;98333.97;4908559;28;106246;-88
2021/08/18 02:13:29;;;;;;;;;1.00;1.00;;;;;22.20;41.41;98339.75;4884224;28;103527;-88
2021/08/18 02:15:56;;;;;;;;;0.67;0.67;;;;;22.18;41.22;98334.56;4892103;28;104207;-89
2021/08/18 02:18:24;;;;;;;;;1.33;1.00;;;;;22.19;41.31;98340.88;4915384;28;104144;-88
2021/08/18 02:20:51;;;;;;;;;1.00;1.00;;;;;22.19;41.42;98330.69;4894675;28;102595;-89
2021/08/18 02:23:18;;;;;;;;;1.33;1.33;;;;;22.10;41.26;98321.38;4896151;28;102500;-89
2021/08/18 02:25:45;;;;;;;;;1.00;1.00;;;;;22.16;40.79;98322.97;4896854;28;104154;-88
2021/08/18 02:28:13;;;;;;;;;1.00;1.00;;;;;22.16;41.09;98320.22;4886228;28;102602;-89
2021/08/18 02:30:40;;;;;;;;;1.67;1.67;;;;;22.16;41.31;98324.91;4895758;28;103261;-89
2021/08/18 02:33:08;;;;;;;;;1.67;1.67;;;;;22.16;41.27;98338.69;4897510;28;102147;-89
2021/08/18 02:35:36;;;;;;;;;2.00;2.00;;;;;22.15;41.10;98335.09;4896280;28;104052;-88
2021/08/18 02:38:03;;;;;;;;;1.00;1.00;;;;;22.13;41.32;98323.56;4891691;28;102430;-89
2021/08/18 02:40:31;;;;;;;;;1.67;1.67;;;;;22.14;41.24;98333.47;4891467;28;104489;-89
2021/08/18 02:42:58;;;;;;;;;1.00;1.00;;;;;22.12;41.16;98332.91;4881168;28;102807;-89
2021/08/18 02:45:26;;;;;;;;;2.00;2.00;;;;;22.13;41.25;98336.50;4890364;28;104172;-89
2021/08/18 02:47:53;;;;;;;;;0.67;0.67;;;;;22.10;41.37;98332.41;4913128;28;103457;-89
2021/08/18 02:50:22;;;;;;;;;1.00;1.00;;;;;22.12;41.01;98332.09;4893732;28;104039;-89
2021/08/18 02:52:49;;;;;;;;;2.00;1.00;;;;;22.10;41.15;98332.41;4887468;28;102431;-89
2021/08/18 02:55:17;;;;;;;;;0.33;0.33;;;;;22.09;41.12;98340.94;4901404;28;104091;-89
2021/08/18 02:57:44;;;;;;;;;0.67;0.67;;;;;22.09;41.28;98330.75;4878658;28;103303;-88
2021/08/18 03:00:12;;;;;;;;;3.33;1.67;;;;;22.08;41.16;98334.59;4882963;28;106134;-89
2021/08/18 03:02:39;;;;;;;;;1.33;1.33;;;;;22.05;41.31;98339.84;4896021;28;102670;-89
2021/08/18 03:05:07;;;;;;;;;0.67;0.67;;;;;22.05;40.88;98335.16;4887553;28;104153;-89
2021/08/18 03:07:34;;;;;;;;;2.00;1.00;;;;;22.06;41.32;98336.81;4899551;28;104199;-89
2021/08/18 03:10:02;;;;;;;;;2.00;0.67;;;;;22.07;41.33;98332.94;4890223;28;102693;-89
2021/08/18 03:12:30;;;;;;;;;1.33;1.33;;;;;22.06;41.66;98342.31;4903727;28;102799;-89
2021/08/18 03:14:57;;;;;;;;;1.00;1.00;;;;;22.05;41.36;98346.19;4899878;28;104239;-89
2021/08/18 03:17:24;;;;;;;;;1.00;1.00;;;;;22.05;40.93;98345.34;4877872;28;102915;-89
2021/08/18 03:19:51;;;;;;;;;1.00;1.00;;;;;22.04;41.04;98350.03;4900880;28;106659;-89
2021/08/18 03:22:18;;;;;;;;;0.67;0.67;;;;;22.04;40.90;98341.78;4911480;28;102585;-89
2021/08/18 03:24:45;;;;;;;;;1.00;1.00;;;;;22.04;41.14;98350.03;4907714;28;104251;-89
2021/08/18 03:27:13;;;;;;;;;1.33;1.33;;;;;22.04;41.34;98346.44;4912434;28;102343;-89
2021/08/18 03:29:40;;;;;;;;;1.00;1.00;;;;;22.03;41.18;98342.88;4912736;28;102479;-88
2021/08/18 03:32:07;;;;;;;;;0.67;0.67;;;;;22.02;40.95;98341.22;4906922;28;102756;-89
2021/08/18 03:34:35;;;;;;;;;1.33;1.33;;;;;22.00;41.35;98340.69;4907758;28;104141;-89
2021/08/18 03:37:02;;;;;;;;;1.33;1.33;;;;;22.01;41.00;98344.28;4918736;28;103078;-89
2021/08/18 03:39:29;;;;;;;;;1.00;0.33;;;;;22.00;41.42;98348.94;4902053;28;102678;-89
2021/08/18 03:41:57;;;;;;;;;0.00;0.00;;;;;21.98;40.90;98351.16;4908125;28;104257;-90
2021/08/18 03:44:24;;;;;;;;;1.33;1.00;;;;;21.96;40.92;98352.53;4915546;28;104048;-88
2021/08/18 03:46:51;;;;;;;;;1.00;1.00;;;;;21.98;41.22;98356.66;4912375;28;102175;-89
2021/08/18 03:49:19;;;;;;;;;2.33;1.67;;;;;21.95;40.81;98350.88;4920530;28;102361;-89
2021/08/18 03:51:48;;;;;;;;;1.67;1.67;;;;;21.95;40.80;98359.97;4915553;28;109679;-89
2021/08/18 03:54:15;;;;;;;;;2.00;1.33;;;;;21.95;40.91;98357.22;4916376;28;104074;-89
2021/08/18 03:56:42;;;;;;;;;1.00;1.00;;;;;21.94;41.07;98341.81;4911194;28;102293;-89
2021/08/18 03:59:11;;;;;;;;;0.33;0.33;;;;;21.92;41.03;98346.75;4895708;28;102538;-89
2021/08/18 04:01:38;;;;;;;;;0.67;0.67;;;;;21.94;41.04;98346.47;4908453;28;103850;-89
2021/08/18 04:04:06;;;;;;;;;2.00;0.67;;;;;21.93;41.17;98351.16;4911857;28;104483;-89
2021/08/18 04:06:34;;;;;;;;;1.00;0.67;;;;;21.90;41.19;98348.94;4912661;28;102398;-88
2021/08/18 04:09:01;;;;;;;;;0.67;0.67;;;;;21.90;41.19;98348.94;4919922;28;103478;-88
2021/08/18 04:11:28;;;;;;;;;1.00;1.00;;;;;21.85;41.48;98346.22;4916142;28;102849;-89
2021/08/18 04:13:55;;;;;;;;;1.00;1.00;;;;;21.83;41.12;98342.09;4918190;28;108693;-88
2021/08/18 04:16:23;;;;;;;;;0.67;0.67;;;;;21.89;41.22;98355.53;4916650;28;102165;-89
2021/08/18 04:18:50;;;;;;;;;0.67;0.67;;;;;21.87;43.15;98351.44;4903005;28;102811;-89
2021/08/18 04:21:17;;;;;;;;;1.33;1.33;;;;;21.90;42.47;98353.63;4893434;28;102657;-89
2021/08/18 04:23:45;;;;;;;;;2.00;1.33;;;;;21.89;42.93;98357.47;4895289;28;104710;-89
2021/08/18 04:26:13;;;;;;;;;1.00;1.00;;;;;21.89;42.85;98362.97;4902264;28;102447;-90
2021/08/18 04:28:40;;;;;;;;;2.00;1.00;;;;;21.90;42.94;98368.22;4889998;28;102336;-89
2021/08/18 04:31:07;;;;;;;;;1.00;1.00;;;;;21.88;43.75;98361.34;4912116;28;102512;-89
2021/08/18 04:33:34;;;;;;;;;1.33;1.33;;;;;21.91;44.01;98372.63;4894150;28;104517;-89
2021/08/18 04:36:02;;;;;;;;;0.67;0.67;;;;;21.87;43.73;98363.28;4896212;28;102321;-89
2021/08/18 04:38:29;;;;;;;;;3.00;2.33;;;;;21.88;44.33;98375.13;4895677;28;102695;-90
2021/08/18 04:40:56;;;;;;;;;0.67;0.67;;;;;21.89;43.97;98374.00;4880193;28;102910;-89
2021/08/18 04:43:23;;;;;;;;;1.00;1.00;;;;;21.89;43.77;98377.56;4906005;28;104159;-89
2021/08/18 04:45:52;;;;;;;;;0.67;0.67;;;;;21.84;43.91;98363.81;4905762;28;102161;-89
2021/08/18 04:48:20;;;;;;;;;0.67;0.67;;;;;21.88;43.45;98372.38;4900769;28;102086;-89
2021/08/18 04:50:47;;;;;;;;;1.00;1.00;;;;;21.87;44.03;98365.22;4905448;28;102645;-89
2021/08/18 04:53:14;;;;;;;;;1.00;1.00;;;;;21.86;43.48;98367.13;4893781;28;105229;-89
2021/08/18 04:55:41;;;;;;;;;0.67;0.67;;;;;21.87;43.82;98365.22;4890264;28;102537;-89
2021/08/18 04:58:09;;;;;;;;;2.00;2.00;;;;;21.84;43.33;98361.06;4907576;28;102439;-88
2021/08/18 05:00:36;;;;;;;;;2.00;1.67;;;;;21.85;43.83;98356.38;4894265;28;103810;-88
2021/08/18 05:03:03;;;;;;;;;0.67;0.67;;;;;21.84;43.78;98366.56;4900499;28;104083;-88
2021/08/18 05:05:31;;;;;;;;;2.00;1.33;;;;;21.84;43.76;98366.56;4890299;28;102538;-88
2021/08/18 05:07:59;;;;;;;;;2.00;2.00;;;;;21.83;43.33;98364.13;4881716;28;102643;-88
2021/08/18 05:10:26;;;;;;;;;2.67;2.00;;;;;21.83;43.26;98370.44;4894593;28;102955;-88
2021/08/18 05:12:53;;;;;;;;;1.33;1.33;;;;;21.80;43.44;98371.00;4903483;28;104461;-88
2021/08/18 05:15:22;;;;;;;;;1.67;0.67;;;;;21.81;43.61;98378.16;4898824;28;102983;-88
2021/08/18 05:17:50;;;;;;;;;3.33;1.67;;;;;21.80;43.66;98384.75;4905915;28;103047;-88
2021/08/18 05:20:17;;;;;;;;;3.00;2.67;;;;;21.79;43.51;98383.13;4921257;28;102544;-88
2021/08/18 05:22:45;;;;;;;;;1.00;1.00;;;;;21.77;43.69;98388.06;4906605;28;104476;-88
2021/08/18 05:25:14;;;;;;;;;1.67;1.67;;;;;21.77;43.81;98393.56;4913926;28;104231;-88
2021/08/18 05:27:41;;;;;;;;;1.33;1.33;;;;;21.77;43.55;98396.34;4922113;28;102549;-88
2021/08/18 05:30:09;;;;;;;;;1.00;1.00;;;;;21.75;44.04;98399.34;4910228;28;102530;-88
2021/08/18 05:32:37;;;;;;;;;2.33;0.67;;;;;21.76;44.01;98402.94;4883557;28;105098;-88
2021/08/18 05:35:06;;;;;;;;;1.00;1.00;;;;;21.73;43.31;98404.31;4922971;28;104188;-88
2021/08/18 05:37:33;;;;;;;;;1.33;1.33;;;;;21.74;43.55;98399.66;4923377;28;102630;-89
2021/08/18 05:40:00;;;;;;;;;2.00;1.00;;;;;21.75;43.75;98401.28;4927842;28;102579;-88
2021/08/18 05:42:27;;;;;;;;;1.67;1.00;;;;;21.75;43.64;98404.84;4924524;28;110136;-88
2021/08/18 05:44:55;;;;;;;;;1.00;1.00;;;;;21.74;43.63;98405.97;4924562;28;102473;-88
2021/08/18 05:47:22;;;;;;;;;1.33;1.33;;;;;21.72;43.88;98408.16;4927599;28;102407;-88
2021/08/18 05:49:49;;;;;;;;;2.00;1.33;;;;;21.72;44.35;98407.34;4923984;28;103339;-88
2021/08/18 05:52:16;;;;;;;;;1.00;1.00;;;;;21.71;43.71;98405.69;4919191;28;104056;-88
2021/08/18 05:54:43;;;;;;;;;2.00;2.00;;;;;21.69;44.40;98397.72;4924455;28;102537;-88
2021/08/18 05:57:10;;;;;;;;;1.00;1.00;;;;;21.70;43.96;98409.56;4924758;28;103641;-88
2021/08/18 05:59:38;;;;;;;;;1.67;1.67;;;;;21.70;43.99;98413.13;4923993;28;102879;-88
2021/08/18 06:02:05;;;;;;;;;2.00;1.00;;;;;21.69;43.83;98414.25;4913358;28;104130;-88
2021/08/18 06:04:32;;;;;;;;;2.00;1.67;;;;;21.68;43.92;98412.59;4923088;28;105665;-88
2021/08/18 06:06:59;;;;;;;;;1.67;1.00;;;;;21.67;43.96;98416.44;4918910;28;107542;-88
2021/08/18 06:09:27;;;;;;;;;2.00;1.67;;;;;21.67;43.75;98410.09;4913204;28;102496;-88
2021/08/18 06:11:54;;;;;;;;;1.00;1.00;;;;;21.68;44.19;98409.00;4921425;28;104316;-88
2021/08/18 06:14:21;;;;;;;;;1.33;1.00;;;;;;;;4919345;28;103363;-88
2021/08/18 06:16:48;;;;;;;;;1.00;0.33;;;;;21.64;43.85;98410.66;4925624;28;105430;-89
2021/08/18 06:19:16;;;;;;;;;0.00;0.00;;;;;21.66;43.95;98408.44;4921969;28;102684;-89
2021/08/18 06:21:43;;;;;;;;;2.67;2.00;;;;;21.66;44.48;98408.44;4924299;28;104258;-89
2021/08/18 06:24:22;;;;;;;;;2.67;1.67;;;;;21.64;44.18;98410.66;4924454;28;102589;-89
2021/08/18 06:26:51;;;;;;;;;0.67;0.67;;;;;21.62;44.25;98407.34;4922245;28;102712;-89
2021/08/18 06:29:18;;;;;;;;;2.00;1.00;;;;;21.63;44.24;98414.50;4925812;28;103597;-88
2021/08/18 06:31:45;;;;;;;;;1.00;1.00;;;;;21.62;44.20;98410.09;4923731;28;104170;-89
2021/08/18 06:34:12;;;;;;;;;1.00;1.00;;;;;21.61;44.56;98412.06;4922435;28;102206;-89
2021/08/18 06:36:40;;;;;;;;;0.67;0.67;;;;;21.59;44.26;98407.91;4923383;28;102394;-89
2021/08/18 06:39:07;;;;;;;;;2.00;1.67;;;;;21.61;44.60;98411.22;4922325;28;102676;-89
2021/08/18 06:41:34;;;;;;;;;1.00;1.00;;;;;21.61;44.41;98413.97;4921147;28;104280;-89
2021/08/18 06:44:01;;;;;;;;;1.67;1.67;;;;;21.59;44.36;98406.00;4930251;28;102293;-89
2021/08/18 06:46:29;;;;;;;;;2.00;2.00;;;;;21.61;43.96;98416.72;4920217;28;102620;-89
2021/08/18 06:48:56;;;;;;;;;1.33;1.33;;;;;21.62;44.13;98410.09;4918412;28;102609;-89
2021/08/18 06:51:24;;;;;;;;;2.67;2.67;;;;;21.61;44.24;98416.72;4922518;28;104156;-89
2021/08/18 06:53:52;;;;;;;;;2.00;2.00;;;;;21.61;44.21;98405.72;4914442;28;102584;-89
2021/08/18 06:56:20;;;;;;;;;1.00;1.00;;;;;21.58;44.57;98398.81;4912839;28;104371;-89
2021/08/18 06:58:47;;;;;;;;;2.00;1.33;;;;;21.61;44.63;98405.72;4917870;28;102204;-89
2021/08/18 07:01:14;;;;;;;;;1.00;1.00;;;;;21.60;44.26;98402.16;4901378;28;104333;-89
2021/08/18 07:03:41;;;;;;;;;2.00;2.00;;;;;21.61;44.50;98395.53;4913555;28;102217;-89
2021/08/18 07:06:09;;;;;;;;;2.00;1.67;;;;;21.60;44.90;98396.63;4913611;28;102166;-89
2021/08/18 07:08:36;;;;;;;;;0.67;0.67;;;;;21.61;44.60;98391.97;4906495;28;102169;-89
2021/08/18 07:11:03;;;;;;;;;0.67;0.67;;;;;21.61;44.40;98394.72;4915766;28;104522;-89
2021/08/18 07:13:30;;;;;;;;;1.67;1.67;;;;;21.62;44.77;98390.84;4914034;28;103020;-89
2021/08/18 07:15:57;;;;;;;;;2.00;1.33;;;;;21.62;44.78;98391.66;4910920;28;102976;-88
2021/08/18 07:18:25;;;;;;;;;1.33;1.33;;;;;21.64;44.86;98394.16;4914219;28;105058;-88
2021/08/18 07:20:52;;;;;;;;;2.33;2.33;;;;;21.63;44.89;98409.00;4920180;28;104519;-88
2021/08/18 07:23:19;;;;;;;;;1.67;0.67;;;;;21.64;44.62;98402.41;4915463;28;102745;-89
2021/08/18 07:25:46;;;;;;;;;2.33;1.67;;;;;21.65;44.68;98407.66;4913342;28;102990;-88
2021/08/18 07:28:13;;;;;;;;;1.33;1.00;;;;;21.63;45.12;98401.56;4918466;28;102558;-89
2021/08/18 07:30:41;;;;;;;;;2.67;1.67;;;;;21.66;45.03;98402.94;4906822;28;111557;-88
2021/08/18 07:33:08;;;;;;;;;1.00;1.00;;;;;21.65;44.62;98404.91;4928194;28;102720;-89
2021/08/18 07:35:35;;;;;;;;;2.00;2.00;;;;;21.67;45.02;98404.59;4924621;28;102578;-89
2021/08/18 07:38:02;;;;;;;;;1.67;1.67;;;;;21.67;44.78;98401.84;4918711;28;102658;-89
2021/08/18 07:40:29;;;;;;;;;2.00;1.00;;;;;21.68;45.26;98396.06;4920113;28;104227;-89
2021/08/18 07:42:58;;;;;;;;;3.00;2.00;;;;;21.71;44.68;98405.69;4918351;28;102994;-89
2021/08/18 07:45:27;;;;;;;;;1.67;1.67;;;;;21.71;45.21;98384.50;4917924;28;103813;-89
2021/08/18 07:47:54;;;;;;;;;0.67;0.67;;;;;21.71;44.69;98390.00;4916383;28;102838;-89
2021/08/18 07:50:21;;;;;;;;;1.00;1.00;;;;;21.72;45.24;98393.59;4912867;28;105409;-89
2021/08/18 07:52:49;;;;;;;;;2.00;1.00;;;;;21.72;44.97;98385.31;4913156;28;103614;-88
2021/08/18 07:55:17;;;;;;;;;3.00;1.67;;;;;21.72;45.45;98390.84;4914256;28;102461;-89
2021/08/18 07:57:44;;;;;;;;;2.00;2.00;;;;;21.74;45.31;98388.63;4911433;28;104029;-89
2021/08/18 08:00:12;;;;;;;;;1.67;1.33;;;;;21.74;45.41;98394.97;4918599;28;104251;-89
2021/08/18 08:02:45;;;;;;;;;2.33;1.67;;;;;21.73;45.17;98389.72;4921259;28;102141;-89
2021/08/18 08:05:15;;;;;;;;;1.33;0.67;;;;;21.76;45.18;98392.75;4916090;28;103126;-89
2021/08/18 08:07:43;;;;;;;;;2.00;1.33;;;;;21.78;45.19;98395.22;4916237;28;102216;-89
2021/08/18 08:10:11;;;;;;;;;0.67;0.67;;;;;21.69;45.67;98364.69;4916636;28;104337;-89
2021/08/18 08:12:40;;;;;;;;;1.00;1.00;;;;;21.78;45.11;98386.97;4916021;28;102410;-89
2021/08/18 08:15:08;;;;;;;;;2.33;1.67;;;;;21.78;45.75;98373.22;4916294;28;102160;-88
2021/08/18 08:17:35;;;;;;;;;2.33;2.33;;;;;21.81;45.54;98380.91;4917308;28;103303;-88
2021/08/18 08:20:03;;;;;;;;;1.00;1.00;;;;;21.81;45.28;98386.41;4910094;28;104076;-88
2021/08/18 08:22:30;;;;;;;;;2.33;2.00;;;;;21.83;45.45;98381.47;4915712;28;102725;-88
2021/08/18 08:24:58;;;;;;;;;4.00;2.33;;;;;21.83;45.69;98380.63;4897188;28;103473;-88
2021/08/18 08:27:25;;;;;;;;;2.33;2.33;;;;;21.84;45.54;98376.78;4917587;28;102909;-89
2021/08/18 08:29:52;;;;;;;;;1.67;1.67;;;;;21.85;45.34;98379.25;4923722;28;104071;-89
2021/08/18 08:32:22;;;;;;;;;1.67;1.67;;;;;21.86;45.62;98380.91;4927723;28;102143;-88
2021/08/18 08:34:49;;;;;;;;;1.00;1.00;;;;;21.85;45.80;98370.97;4929979;28;102334;-88
2021/08/18 08:37:18;;;;;;;;;0.67;0.67;;;;;21.88;45.27;98373.19;4938199;28;101791;-89
2021/08/18 08:39:45;;;;;;;;;1.67;1.67;;;;;21.88;45.79;98364.09;4934006;28;103396;-89
2021/08/18 08:42:13;;;;;;;;;2.00;2.00;;;;;21.91;45.41;98371.78;4927589;28;102203;-88
2021/08/18 08:44:40;;;;;;;;;1.67;1.67;;;;;21.91;45.20;98372.63;4938807;28;102251;-89
2021/08/18 08:47:07;;;;;;;;;1.00;1.00;;;;;21.92;45.30;98368.78;4924569;28;102544;-88
2021/08/18 08:49:34;;;;;;;;;1.67;1.67;;;;;21.92;45.21;98363.28;4909700;28;111039;-88
2021/08/18 08:52:02;;;;;;;;;1.67;1.67;;;;;21.94;45.13;98361.06;4919622;28;102174;-88
2021/08/18 08:54:29;;;;;;;;;1.00;1.00;;;;;21.96;45.14;98364.38;4936235;28;102659;-89
2021/08/18 08:56:56;;;;;;;;;2.00;2.00;;;;;21.96;45.23;98358.88;4914776;28;102228;-88
2021/08/18 08:59:23;;;;;;;;;3.00;3.00;;;;;21.99;45.52;98355.56;4912921;28;104118;-88
2021/08/18 09:02:07;;;;;;;;;1.67;1.67;;;;;22.00;45.39;98365.47;4928337;28;102260;-89
2021/08/18 09:04:44;;;;;;;;;2.00;1.67;;;;;22.03;45.28;98362.16;4929122;28;101772;-88
2021/08/18 09:07:13;;;;;;;;;1.33;1.33;;;;;22.02;45.18;98360.50;4927429;28;101801;-89
2021/08/18 09:09:49;;;;;;;;;3.00;2.67;;;;;22.04;45.38;98362.97;4927223;28;103414;-90
2021/08/18 09:12:18;;;;;;;;;3.00;2.50;;;;;22.04;45.02;98355.53;4919492;28;102113;-88
2021/08/18 09:14:45;;;;;;;;;1.67;1.67;;;;;22.06;45.35;98360.78;4926966;28;104768;-89
2021/08/18 09:17:32;;;;;;;;;2.00;2.00;;;;;22.06;45.29;98358.03;4926677;28;102232;-88
2021/08/18 09:20:10;;;;;;;;;3.00;2.00;;;;;22.07;45.48;98354.97;4921849;28;103703;-88
2021/08/18 09:22:39;;;;;;;;;0.33;0.00;;;;;22.07;45.62;98365.16;4915353;28;101803;-88
2021/08/18 09:25:10;;;;;;;;;3.33;2.00;;;;;22.10;45.30;98370.13;4936674;28;103207;-88
2021/08/18 09:27:38;;;;;;;;;1.67;1.67;;;;;22.10;45.06;98362.69;4929939;28;102034;-88
2021/08/18 09:30:17;;;;;;;;;2.00;1.67;;;;;22.10;45.31;98359.94;4915891;28;108091;-88
2021/08/18 09:32:44;;;;;;;;;3.00;1.67;;;;;22.12;45.04;98356.88;4918715;28;101871;-88
2021/08/18 09:35:15;;;;;;;;;1.67;1.67;;;;;22.13;45.42;98348.34;4927010;28;102432;-89
2021/08/18 09:38:02;;;;;;;;;1.00;1.00;;;;;22.13;45.29;98359.34;4931718;28;101768;-88
2021/08/18 09:40:35;;;;;;;;;2.00;1.67;;;;;22.15;45.52;98356.34;4931620;28;103605;-88
2021/08/18 09:43:24;;;;;;;;;2.00;2.00;;;;;22.15;45.40;98357.13;4934276;28;101829;-88
2021/08/18 09:45:55;;;;;;;;;2.33;1.67;;;;;22.17;45.16;98346.66;4870466;28;102276;-89
2021/08/18 09:48:24;;;;;;;;;2.33;1.67;;;;;22.03;45.23;98320.00;4938719;28;102357;-88
2021/08/18 09:50:58;;;;;;;;;4.00;3.67;;;;;22.18;45.14;98344.75;4937567;28;103621;-88
2021/08/18 09:53:27;;;;;;;;;3.00;3.00;;;;;22.18;45.30;98345.56;4933639;28;102329;-88
2021/08/18 09:55:58;;;;;;;;;4.00;3.33;;;;;22.19;45.36;98338.97;4940226;28;101738;-88
2021/08/18 09:58:26;;;;;;;;;2.00;2.00;;;;;22.21;45.44;98339.50;4918878;28;101910;-88
2021/08/18 10:00:54;;;;;;;;;2.33;2.33;;;;;22.21;45.05;98333.97;4917982;28;103344;-88
2021/08/18 10:03:22;;;;;;;;;2.67;2.67;;;;;22.23;45.14;98328.19;4940348;28;101839;-88
2021/08/18 10:05:50;;;;;;;;;2.67;2.00;;;;;22.24;45.05;98327.09;4936568;28;101871;-89
2021/08/18 10:08:18;;;;;;;;;2.33;2.33;;;;;22.25;45.03;98335.06;4919905;28;101842;-88
2021/08/18 10:10:46;;;;;;;;;2.00;2.00;;;;;22.27;44.95;98331.19;4929444;28;103875;-89
2021/08/18 10:13:14;;;;;;;;;2.00;2.00;;;;;22.28;44.92;98319.91;4934375;28;102321;-89
2021/08/18 10:15:41;;;;;;;;;1.67;1.67;;;;;22.28;45.06;98324.59;4935558;28;102002;-90
2021/08/18 10:18:08;;;;;;;;;2.33;2.33;;;;;22.30;45.52;98314.09;4946121;28;101979;-88
2021/08/18 10:20:36;;;;;;;;;1.33;1.33;;;;;22.31;45.48;98313.81;4933169;28;109762;-88
2021/08/18 10:23:05;;;;;;;;;3.00;2.00;;;;;22.33;45.39;98321.81;4913902;28;102022;-88
2021/08/18 10:25:34;;;;;;;;;1.00;1.00;;;;;22.33;45.38;98325.41;4921909;28;102085;-88
2021/08/18 10:28:05;;;;;;;;;2.00;2.00;;;;;22.34;44.94;98321.50;4929614;28;102001;-88
2021/08/18 10:30:44;;;;;;;;;1.67;1.67;;;;;22.35;45.33;98317.66;4919783;28;103487;-88
2021/08/18 10:33:12;;;;;;;;;1.67;1.67;;;;;22.34;45.38;98320.69;4928260;28;102336;-88
2021/08/18 10:35:39;;;;;;;;;2.00;2.00;;;;;22.39;45.10;98328.94;4892393;28;102428;-88
2021/08/18 10:38:26;;;;;;;;;2.00;2.00;;;;;22.39;45.14;98323.41;4913705;28;102218;-89
2021/08/18 10:40:53;;;;;;;;;2.00;1.67;;;;;22.39;45.10;98306.88;4858928;28;108166;-88
2021/08/18 10:43:52;;;;;;;;;2.00;2.00;;;;;22.41;45.00;98308.28;4913153;28;101860;-88
2021/08/18 10:46:20;;;;;;;;;2.67;1.67;;;;;22.43;45.20;98313.47;4852128;28;103072;-88
2021/08/18 10:49:07;;;;;;;;;2.67;2.33;;;;;22.44;45.22;98304.94;4912096;28;101877;-88
2021/08/18 10:51:40;;;;;;;;;2.67;2.00;;;;;22.44;45.24;98299.41;4907830;28;103641;-88
2021/08/18 10:54:29;;;;;;;;;2.67;2.67;;;;;22.46;45.35;98304.66;4909353;28;103072;-88
2021/08/18 10:56:59;;;;;;;;;1.67;1.67;;;;;22.46;45.30;98316.50;4861390;28;103608;-88
2021/08/18 10:59:35;;;;;;;;;3.00;2.00;;;;;22.48;45.28;98316.19;4912221;28;102272;-88
2021/08/18 11:02:09;;;;;;;;;3.00;2.00;;;;;22.50;45.39;98314.00;4910378;28;103419;-88
2021/08/18 11:04:49;;;;;;;;;2.00;2.00;;;;;22.51;45.32;98305.47;4914819;28;101815;-89
2021/08/18 11:07:16;;;;;;;;;3.00;2.67;;;;;22.52;45.16;98303.50;4905165;28;102003;-89
2021/08/18 11:09:47;;;;;;;;;4.00;3.33;;;;;22.54;45.41;98307.63;4911498;28;102352;-89
2021/08/18 11:12:38;;;;;;;;;3.67;2.33;;;;;22.56;45.31;98301.84;4903878;28;103506;-89
2021/08/18 11:15:17;;;;;;;;;3.00;3.00;;;;;22.57;45.12;98308.97;4918991;28;101798;-88
2021/08/18 11:17:49;;;;;;;;;1.67;1.67;;;;;22.57;45.02;98297.94;4910360;28;101843;-88
2021/08/18 11:20:17;;;;;;;;;2.67;2.67;;;;;22.57;45.04;98301.53;4923252;28;102275;-89
2021/08/18 11:22:44;;;;;;;;;1.00;1.00;;;;;22.60;45.42;98306.47;4942791;28;103790;-89
2021/08/18 11:25:17;;;;;;;;;2.00;2.00;;;;;22.60;45.33;98297.41;4932489;28;103349;-89
2021/08/18 11:27:48;;;;;;;;;2.00;2.00;;;;;22.61;45.00;98290.75;4927371;28;101643;-89
2021/08/18 11:30:15;;;;;;;;;3.00;3.00;;;;;22.62;45.24;98297.91;4930668;28;101785;-89
2021/08/18 11:32:42;;;;;;;;;5.00;1.67;;;;;22.63;45.43;98292.13;4919572;28;103381;-89
2021/08/18 11:35:09;;;;;;;;;2.00;2.00;;;;;22.64;45.06;98299.31;4922659;28;102231;-88
2021/08/18 11:37:38;;;;;;;;;2.33;2.00;;;;;22.65;45.37;98300.91;4934408;28;101775;-88